DTTZ/TOE METAR and TAF weather

Enter ICAO airport designator
Station Type Date Time Source
DTTZ METAR 2021/07/30 08:00 UTC NOAA

DTTZ 300800Z 13010KT CAVOK 34/10 Q1015


Station Type Date Time Source
DTTZ Decoded METAR 2021/07/30 08:00 UTC NOAA

Tozeur, Tunisia (DTTZ) 33-55N 008-06E 93M
Jul 30, 2021 - 04:00 AM EDT / 2021.07.30 0800 UTC
Wind: from the SE (130 degrees) at 12 MPH (10 KT):0
Visibility: greater than 7 mile(s):0
Temperature: 93 F (34 C)
Dew Point: 50 F (10 C)
Relative Humidity: 23%
Pressure (altimeter): 29.97 in. Hg (1015 hPa)
ob: DTTZ 300800Z 13010KT CAVOK 34/10 Q1015
cycle: 8

Station Type Date Time Source
DTTZ TAF 2021/07/30 06:06 UTC NOAA

TAF DTTZ 300500Z 3006/3106 11010KT CAVOK
BECMG 3007/3009 21005KT
BECMG 3018/3020 VRB03KT

Example: see airport list